createdAt,value
2018-02-15T00:01:48.838Z,100873.59
2018-02-15T00:04:21.819Z,100878.44
2018-02-15T00:06:57.013Z,100878.19
2018-02-15T00:09:30.998Z,100886.02
2018-02-15T00:12:04.534Z,100892.83
2018-02-15T00:14:40.364Z,100897.39
2018-02-15T00:17:15.878Z,100884.88
2018-02-15T00:20:01.035Z,100886.95
2018-02-15T00:22:33.000Z,100884.53
2018-02-15T00:25:10.080Z,100876.95
2018-02-15T00:27:42.562Z,100880.73
2018-02-15T00:30:19.103Z,100884.58
2018-02-15T00:32:54.071Z,100864.19
2018-02-15T00:35:26.686Z,100862.45
2018-02-15T00:37:59.815Z,100868.49
2018-02-15T00:43:22.691Z,100865.98
2018-02-15T00:45:58.722Z,100864.23
2018-02-15T00:48:29.454Z,100864.19
2018-02-15T00:51:02.275Z,100849.89
2018-02-15T00:53:35.322Z,100850.41
2018-02-15T00:56:12.583Z,100860.63
2018-02-15T00:58:50.400Z,100863.41
2018-02-15T01:01:22.998Z,100860.49
2018-02-15T01:06:41.398Z,100856.44
2018-02-15T01:09:19.590Z,100860.11
2018-02-15T01:11:57.117Z,100849.68
2018-02-15T01:14:34.295Z,100840.02
2018-02-15T01:17:21.721Z,100836.53
2018-02-15T01:19:58.828Z,100812.70
2018-02-15T01:22:35.258Z,100820.55
2018-02-15T01:25:07.692Z,100821.83
2018-02-15T01:27:43.006Z,100798.90
2018-02-15T01:30:20.159Z,100799.05
2018-02-15T01:32:54.054Z,100806.20
2018-02-15T01:35:30.894Z,100813.70
2018-02-15T01:38:06.589Z,100816.56
2018-02-15T01:40:42.718Z,100799.16
2018-02-15T01:43:16.338Z,100799.98
2018-02-15T01:45:48.728Z,100800.22
2018-02-15T01:48:27.952Z,100790.36
2018-02-15T01:51:08.417Z,100789.57
2018-02-15T01:53:41.792Z,100801.72
2018-02-15T01:56:21.118Z,100796.52
2018-02-15T01:59:04.152Z,100788.47
2018-02-15T02:01:42.096Z,100782.84
2018-02-15T02:04:13.854Z,100793.44
2018-02-15T02:06:48.500Z,100789.81
2018-02-15T02:09:20.691Z,100779.41
2018-02-15T02:11:51.558Z,100776.97
2018-02-15T02:14:23.577Z,100785.99
2018-02-15T02:16:56.911Z,100789.34
2018-02-15T02:19:29.510Z,100786.03
2018-02-15T02:22:02.817Z,100780.77
2018-02-15T02:24:46.799Z,100771.61
2018-02-15T02:27:21.509Z,100773.05
2018-02-15T02:29:58.393Z,100771.54
2018-02-15T02:35:14.757Z,100751.41
2018-02-15T02:37:55.693Z,100750.81
2018-02-15T02:40:34.781Z,100741.32
2018-02-15T02:43:09.916Z,100741.98
2018-02-15T02:45:50.599Z,100743.23
2018-02-15T02:48:31.870Z,100743.94
2018-02-15T02:51:05.277Z,100753.12
2018-02-15T02:53:38.077Z,100743.58
2018-02-15T02:56:11.531Z,100748.67
2018-02-15T02:58:45.199Z,100746.94
2018-02-15T03:01:19.482Z,100735.20
2018-02-15T03:04:01.631Z,100745.23
2018-02-15T03:06:55.305Z,100737.47
2018-02-15T03:09:33.141Z,100719.09
2018-02-15T03:12:44.100Z,100738.37
2018-02-15T03:15:18.881Z,100730.59
2018-02-15T03:17:51.000Z,100729.16
2018-02-15T03:20:22.345Z,100733.88
2018-02-15T03:22:56.098Z,100718.52
2018-02-15T03:25:38.986Z,100718.87
2018-02-15T03:28:14.999Z,100718.23
2018-02-15T03:30:52.527Z,100710.77
2018-02-15T03:33:29.818Z,100711.61
2018-02-15T03:36:05.202Z,100722.50
2018-02-15T03:38:40.660Z,100727.61
2018-02-15T03:41:28.969Z,100717.38
2018-02-15T03:44:05.792Z,100710.27
2018-02-15T03:46:43.081Z,100720.78
2018-02-15T03:49:14.154Z,100726.78
2018-02-15T03:51:52.405Z,100735.00
2018-02-15T03:54:32.052Z,100736.64
2018-02-15T03:57:07.869Z,100740.66
2018-02-15T03:59:38.896Z,100742.60
2018-02-15T04:02:09.400Z,100754.02
2018-02-15T04:04:42.082Z,100757.55
2018-02-15T04:07:21.978Z,100755.34
2018-02-15T04:09:55.160Z,100763.64
2018-02-15T04:12:31.178Z,100758.97
2018-02-15T04:15:05.093Z,100750.77
2018-02-15T04:17:36.587Z,100758.02
2018-02-15T04:20:14.468Z,100755.66
2018-02-15T04:22:51.838Z,100753.30
2018-02-15T04:25:23.989Z,100749.55
2018-02-15T04:27:54.808Z,100758.73
2018-02-15T04:30:27.540Z,100749.47
2018-02-15T04:32:59.951Z,100741.34
2018-02-15T04:35:40.541Z,100750.67
2018-02-15T04:38:11.780Z,100740.56
2018-02-15T04:40:43.152Z,100734.76
2018-02-15T04:43:21.102Z,100739.11
2018-02-15T04:45:53.148Z,100738.09
2018-02-15T04:48:24.345Z,100732.03
2018-02-15T04:50:59.852Z,100742.70
2018-02-15T04:53:32.360Z,100737.09
2018-02-15T04:56:04.362Z,100729.59
2018-02-15T04:58:34.965Z,100712.16
2018-02-15T05:01:06.969Z,100715.64
2018-02-15T05:03:41.412Z,100713.30
2018-02-15T05:06:13.190Z,100700.72
2018-02-15T05:08:45.456Z,100700.50
2018-02-15T05:11:16.887Z,100680.91
2018-02-15T05:13:47.189Z,100686.86
2018-02-15T05:16:19.202Z,100701.31
2018-02-15T05:18:50.314Z,100693.48
2018-02-15T05:21:22.871Z,100685.07
2018-02-15T05:23:54.645Z,100699.86
2018-02-15T05:26:25.961Z,100704.99
2018-02-15T05:28:56.747Z,100703.45
2018-02-15T05:31:32.505Z,100698.67
2018-02-15T05:34:04.047Z,100680.14
2018-02-15T05:36:34.416Z,100670.63
2018-02-15T05:39:05.797Z,100668.23
2018-02-15T05:41:39.742Z,100671.95
2018-02-15T05:44:10.068Z,100656.80
2018-02-15T05:46:42.349Z,100649.92
2018-02-15T05:49:17.738Z,100647.32
2018-02-15T05:51:47.962Z,100626.10
2018-02-15T05:54:20.304Z,100649.30
2018-02-15T05:56:51.707Z,100643.77
2018-02-15T05:59:23.195Z,100629.86
2018-02-15T06:01:56.323Z,100628.56
2018-02-15T06:04:28.802Z,100625.84
2018-02-15T06:07:00.633Z,100628.05
2018-02-15T06:09:35.332Z,100635.94
2018-02-15T06:12:08.476Z,100628.86
2018-02-15T06:14:39.878Z,100623.84
2018-02-15T06:17:11.764Z,100635.45
2018-02-15T06:19:46.363Z,100625.45
2018-02-15T06:22:19.710Z,100622.36
2018-02-15T06:24:51.530Z,100624.27
2018-02-15T06:27:23.068Z,100629.70
2018-02-15T06:29:53.635Z,100611.82
2018-02-15T06:32:24.891Z,100619.28
2018-02-15T06:34:56.075Z,100614.14
2018-02-15T06:37:34.924Z,100623.37
2018-02-15T06:40:06.117Z,100618.07
2018-02-15T06:42:38.401Z,100631.44
2018-02-15T06:47:49.442Z,100636.24
2018-02-15T06:50:20.712Z,100620.13
2018-02-15T06:52:52.870Z,100580.95
2018-02-15T06:55:25.049Z,100624.23
2018-02-15T06:57:56.441Z,100618.00
2018-02-15T07:00:30.721Z,100612.00
2018-02-15T07:03:02.948Z,100620.99
2018-02-15T07:05:34.648Z,100626.85
2018-02-15T07:10:52.689Z,100620.34
2018-02-15T07:13:26.245Z,100611.86
2018-02-15T07:16:03.566Z,100614.55
2018-02-15T07:18:36.705Z,100614.37
2018-02-15T07:21:11.313Z,100600.64
2018-02-15T07:23:45.166Z,100607.98
2018-02-15T07:26:16.564Z,100617.91
2018-02-15T07:28:51.391Z,100622.45
2018-02-15T07:31:31.888Z,100628.14
2018-02-15T07:34:06.940Z,100637.09
2018-02-15T07:36:49.181Z,100632.38
2018-02-15T07:39:21.760Z,100637.16
2018-02-15T07:41:58.688Z,100631.70
2018-02-15T07:44:37.184Z,100634.94
2018-02-15T07:47:11.382Z,100631.62
2018-02-15T07:49:48.189Z,100634.39
2018-02-15T07:52:25.265Z,100636.77
2018-02-15T07:54:58.928Z,100627.41
2018-02-15T07:57:31.137Z,100637.75
2018-02-15T08:00:10.333Z,100642.63
2018-02-15T08:02:48.302Z,100651.17
2018-02-15T08:05:22.627Z,100642.84
2018-02-15T08:07:58.444Z,100628.88
2018-02-15T08:10:29.703Z,100640.48
2018-02-15T08:13:02.607Z,100630.15
2018-02-15T08:15:40.673Z,100651.75
2018-02-15T08:18:14.148Z,100666.23
2018-02-15T08:20:49.824Z,100642.14
2018-02-15T08:23:21.700Z,100646.98
2018-02-15T08:25:57.848Z,100650.45
2018-02-15T08:28:30.665Z,100659.95
2018-02-15T08:31:10.033Z,100641.46
2018-02-15T08:33:41.170Z,100667.37
2018-02-15T08:36:18.751Z,100663.48
2018-02-15T08:38:56.993Z,100654.74
2018-02-15T08:41:33.152Z,100645.03
2018-02-15T08:44:10.797Z,100651.35
2018-02-15T08:46:44.615Z,100660.95
2018-02-15T08:49:20.031Z,100665.44
2018-02-15T08:51:58.414Z,100667.67
2018-02-15T08:54:39.495Z,100679.17
2018-02-15T08:57:11.388Z,100670.42
2018-02-15T08:59:44.254Z,100663.83
2018-02-15T09:02:20.195Z,100632.09
2018-02-15T09:04:54.211Z,100660.64
2018-02-15T09:07:27.490Z,100672.03
2018-02-15T09:10:20.727Z,100673.30
2018-02-15T09:12:52.925Z,100671.64
2018-02-15T09:15:25.035Z,100666.52
2018-02-15T09:17:59.190Z,100665.59
2018-02-15T09:20:37.716Z,100673.25
2018-02-15T09:25:49.198Z,100670.56
2018-02-15T09:28:23.383Z,100670.76
2018-02-15T09:30:58.789Z,100664.28
2018-02-15T09:33:38.665Z,100666.38
2018-02-15T09:36:15.434Z,100659.86
2018-02-15T09:38:57.262Z,100679.17
2018-02-15T09:41:30.537Z,100692.16
2018-02-15T09:44:05.485Z,100692.30
2018-02-15T09:46:40.570Z,100674.57
2018-02-15T09:49:13.384Z,100670.42
2018-02-15T09:51:51.414Z,100686.70
2018-02-15T09:54:29.315Z,100698.08
2018-02-15T09:57:02.536Z,100697.17
2018-02-15T09:59:35.074Z,100691.28
2018-02-15T10:02:11.349Z,100690.66
2018-02-15T10:04:45.410Z,100674.89
2018-02-15T10:07:19.138Z,100691.22
2018-02-15T10:09:57.535Z,100693.27
2018-02-15T10:12:42.662Z,100696.22
2018-02-15T10:15:18.301Z,100695.58
2018-02-15T10:18:04.848Z,100681.09
2018-02-15T10:20:57.538Z,100676.73
2018-02-15T10:23:35.306Z,100692.89
2018-02-15T10:26:11.084Z,100700.84
2018-02-15T10:29:14.590Z,100711.14
2018-02-15T10:31:56.069Z,100700.12
2018-02-15T10:34:34.717Z,100698.59
2018-02-15T10:37:08.154Z,100689.66
2018-02-15T10:39:45.878Z,100693.86
2018-02-15T10:42:17.371Z,100708.70
2018-02-15T10:47:27.730Z,100705.11
2018-02-15T10:50:01.620Z,100714.59
2018-02-15T10:52:37.772Z,100691.55
2018-02-15T10:55:11.084Z,100707.16
2018-02-15T10:57:48.244Z,100716.81
2018-02-15T11:00:30.308Z,100714.08
2018-02-15T11:03:11.101Z,100704.42
2018-02-15T11:05:48.890Z,100720.34
2018-02-15T11:08:21.326Z,100718.97
2018-02-15T11:10:54.676Z,100723.52
2018-02-15T11:13:30.356Z,100724.56
2018-02-15T11:16:08.286Z,100727.73
2018-02-15T11:19:02.097Z,100711.14
2018-02-15T11:21:40.158Z,100729.03
2018-02-15T11:24:11.817Z,100735.85
2018-02-15T11:27:01.389Z,100744.91
2018-02-15T11:29:37.492Z,100738.00
2018-02-15T11:32:12.816Z,100736.62
2018-02-15T11:34:56.113Z,100734.58
2018-02-15T11:41:08.564Z,100742.36
2018-02-15T11:43:54.494Z,100745.30
2018-02-15T11:46:27.289Z,100745.77
2018-02-15T11:49:06.584Z,100747.89
2018-02-15T11:51:45.497Z,100740.82
2018-02-15T11:54:18.006Z,100745.44
2018-02-15T11:57:20.156Z,100738.84
2018-02-15T11:59:56.062Z,100751.34
2018-02-15T12:02:29.844Z,100751.19
2018-02-15T12:05:01.502Z,100752.46
2018-02-15T12:07:36.398Z,100757.59
2018-02-15T12:10:11.522Z,100764.03
2018-02-15T12:12:44.882Z,100770.04
2018-02-15T12:15:29.883Z,100761.92
2018-02-15T12:18:06.595Z,100754.27
2018-02-15T12:20:37.798Z,100758.57
2018-02-15T12:23:15.824Z,100756.73
2018-02-15T12:25:47.298Z,100757.24
2018-02-15T12:28:21.488Z,100740.11
2018-02-15T12:30:58.278Z,100774.43
2018-02-15T12:33:38.540Z,100763.12
2018-02-15T12:36:12.132Z,100763.45
2018-02-15T12:38:45.273Z,100755.78
2018-02-15T12:41:19.338Z,100761.34
2018-02-15T12:43:52.685Z,100757.48
2018-02-15T12:46:31.582Z,100760.50
2018-02-15T12:49:10.999Z,100737.81
2018-02-15T12:51:46.215Z,100751.95
2018-02-15T12:54:28.320Z,100753.78
2018-02-15T12:57:05.766Z,100750.10
2018-02-15T12:59:47.286Z,100751.03
2018-02-15T13:02:20.243Z,100761.61
2018-02-15T13:04:52.968Z,100767.60
2018-02-15T13:07:32.282Z,100774.68
2018-02-15T13:10:05.811Z,100767.83
2018-02-15T13:12:48.494Z,100762.22
2018-02-15T13:15:34.360Z,100765.35
2018-02-15T13:18:12.906Z,100773.75
2018-02-15T13:20:57.203Z,100766.13
2018-02-15T13:23:40.276Z,100767.31
2018-02-15T13:26:15.462Z,100739.58
2018-02-15T13:28:53.997Z,100765.45
2018-02-15T13:31:31.826Z,100769.06
2018-02-15T13:36:45.095Z,100775.95
2018-02-15T13:41:57.779Z,100777.23
2018-02-15T13:44:29.949Z,100790.17
2018-02-15T13:47:05.768Z,100792.82
2018-02-15T13:49:42.299Z,100784.06
2018-02-15T13:52:15.485Z,100799.39
2018-02-15T13:54:52.519Z,100800.55
2018-02-15T13:57:26.137Z,100803.92
2018-02-15T14:02:41.747Z,100818.99
2018-02-15T14:05:14.235Z,100818.57
2018-02-15T14:07:46.961Z,100815.36
2018-02-15T14:10:21.872Z,100825.97
2018-02-15T14:13:04.201Z,100824.55
2018-02-15T14:15:36.003Z,100796.31
2018-02-15T14:18:08.288Z,100826.91
2018-02-15T14:21:00.751Z,100832.03
2018-02-15T14:23:36.472Z,100838.98
2018-02-15T14:26:13.280Z,100827.72
2018-02-15T14:28:47.281Z,100827.52
2018-02-15T14:31:22.165Z,100828.56
2018-02-15T14:33:58.879Z,100833.84
2018-02-15T14:36:39.983Z,100832.95
2018-02-15T14:39:13.759Z,100836.56
2018-02-15T14:41:56.294Z,100842.69
2018-02-15T14:44:33.482Z,100845.55
2018-02-15T14:47:08.838Z,100853.79
2018-02-15T14:49:44.958Z,100858.23
2018-02-15T14:52:28.030Z,100868.64
2018-02-15T14:55:03.665Z,100847.39
2018-02-15T14:57:36.892Z,100855.70
2018-02-15T15:00:20.248Z,100860.14
2018-02-15T15:02:54.234Z,100867.23
2018-02-15T15:05:26.004Z,100872.84
2018-02-15T15:08:03.434Z,100872.60
2018-02-15T15:10:37.916Z,100881.78
2018-02-15T15:13:14.563Z,100888.65
2018-02-15T15:15:54.230Z,100886.52
2018-02-15T15:18:34.078Z,100871.70
2018-02-15T15:21:08.396Z,100870.70
2018-02-15T15:23:42.201Z,100878.06
2018-02-15T15:26:15.530Z,100889.93
2018-02-15T15:28:50.680Z,100883.45
2018-02-15T15:31:28.124Z,100873.91
2018-02-15T15:34:36.935Z,100887.90
2018-02-15T15:37:22.359Z,100900.84
2018-02-15T15:39:59.462Z,100905.86
2018-02-15T15:42:44.400Z,100897.69
2018-02-15T15:48:13.293Z,100908.41
2018-02-15T15:51:07.736Z,100907.54
2018-02-15T15:53:44.645Z,100909.25
2018-02-15T15:56:37.626Z,100904.39
2018-02-15T15:59:16.160Z,100904.39
2018-02-15T16:02:02.659Z,100895.83
2018-02-15T16:04:38.998Z,100921.09
2018-02-15T16:07:40.148Z,100913.58
2018-02-15T16:10:14.948Z,100909.48
2018-02-15T16:12:57.621Z,100915.42
2018-02-15T16:15:34.981Z,100914.25
2018-02-15T16:18:13.858Z,100916.43
2018-02-15T16:20:50.022Z,100923.19
2018-02-15T16:26:23.556Z,100929.83
2018-02-15T16:29:08.362Z,100932.69
2018-02-15T16:31:45.072Z,100934.20
2018-02-15T16:34:22.649Z,100940.80
2018-02-15T16:37:09.785Z,100941.09
2018-02-15T16:39:47.865Z,100942.40
2018-02-15T16:42:31.851Z,100949.62
2018-02-15T16:45:17.599Z,100950.48
2018-02-15T16:47:51.959Z,100960.39
2018-02-15T16:50:35.148Z,100955.77
2018-02-15T16:53:11.827Z,100956.89
2018-02-15T16:58:32.653Z,100965.87
2018-02-15T17:01:11.719Z,100947.86
2018-02-15T17:03:49.490Z,100963.00
2018-02-15T17:06:27.355Z,100959.77
2018-02-15T17:09:12.706Z,100969.60
2018-02-15T17:11:57.386Z,100978.02
2018-02-15T17:14:35.836Z,100988.53
2018-02-15T17:17:21.878Z,100982.67
2018-02-15T17:20:00.898Z,100990.92
2018-02-15T17:22:45.666Z,101000.69
2018-02-15T17:25:25.324Z,101004.32
2018-02-15T17:28:06.245Z,101007.77
2018-02-15T17:30:49.538Z,101000.55
2018-02-15T17:33:31.833Z,101000.00
2018-02-15T17:36:08.382Z,101005.95
2018-02-15T17:38:54.701Z,101014.36
2018-02-15T17:41:37.600Z,101021.31
2018-02-15T17:44:17.591Z,101026.43
2018-02-15T17:47:02.574Z,101043.10
2018-02-15T17:49:40.207Z,101048.83
2018-02-15T17:52:19.188Z,101062.52
2018-02-15T17:54:56.524Z,101057.19
2018-02-15T17:57:43.212Z,101044.08
2018-02-15T18:00:26.530Z,101033.70
2018-02-15T18:03:17.915Z,101050.00
2018-02-15T18:06:06.723Z,101049.20
2018-02-15T18:08:51.784Z,101053.83
2018-02-15T18:11:31.151Z,101054.09
2018-02-15T18:14:09.350Z,101053.27
2018-02-15T18:16:49.599Z,101059.97
2018-02-15T18:19:33.453Z,101057.95
2018-02-15T18:22:07.154Z,101071.27
2018-02-15T18:27:18.847Z,101085.64
2018-02-15T18:29:57.065Z,101090.13
2018-02-15T18:32:39.463Z,101082.22
2018-02-15T18:35:21.468Z,101091.80
2018-02-15T18:37:57.774Z,101095.61
2018-02-15T18:40:32.038Z,101089.95
2018-02-15T18:43:06.911Z,101094.39
2018-02-15T18:45:45.207Z,101102.59
2018-02-15T18:48:30.127Z,101105.77
2018-02-15T18:51:11.202Z,101108.11
2018-02-15T18:56:35.067Z,101116.80
2018-02-15T18:59:13.903Z,101119.55
2018-02-15T19:01:52.184Z,101120.30
2018-02-15T19:04:29.289Z,101122.56
2018-02-15T19:07:04.827Z,101121.34
2018-02-15T19:09:40.433Z,101129.31
2018-02-15T19:12:16.616Z,101133.11
2018-02-15T19:14:57.106Z,101136.36
2018-02-15T19:17:34.186Z,101127.27
2018-02-15T19:20:09.895Z,101157.77
2018-02-15T19:22:49.576Z,101116.45
2018-02-15T19:25:24.813Z,101126.77
2018-02-15T19:28:01.228Z,101166.85
2018-02-15T19:30:40.396Z,101174.20
2018-02-15T19:33:22.663Z,101180.62
2018-02-15T19:35:58.707Z,101176.95
2018-02-15T19:38:33.606Z,101187.42
2018-02-15T19:41:10.481Z,101195.32
2018-02-15T19:43:47.456Z,101191.62
2018-02-15T19:46:27.690Z,101201.70
2018-02-15T19:49:03.681Z,101195.83
2018-02-15T19:51:38.027Z,101209.08
2018-02-15T19:54:16.608Z,101204.50
2018-02-15T19:56:51.701Z,101201.66
2018-02-15T19:59:27.551Z,101204.73
2018-02-15T20:02:04.759Z,101206.87
2018-02-15T20:04:37.982Z,101204.45
2018-02-15T20:07:19.180Z,101209.19
2018-02-15T20:09:53.249Z,101209.94
2018-02-15T20:12:25.710Z,101215.00
2018-02-15T20:15:03.451Z,101216.98
2018-02-15T20:17:38.998Z,101221.38
2018-02-15T20:20:17.801Z,101223.55
2018-02-15T20:22:53.319Z,101230.03
2018-02-15T20:25:28.071Z,101236.87
2018-02-15T20:28:04.977Z,101237.66
2018-02-15T20:30:41.145Z,101245.00
2018-02-15T20:33:16.663Z,101250.50
2018-02-15T20:35:53.286Z,101252.03
2018-02-15T20:38:42.261Z,101250.66
2018-02-15T20:41:18.181Z,101251.66
2018-02-15T20:43:52.151Z,101253.05
2018-02-15T20:46:25.835Z,101248.25
2018-02-15T20:48:59.185Z,101251.66
2018-02-15T20:53:38.452Z,101261.30
2018-02-15T20:56:13.983Z,101267.60
2018-02-15T20:58:49.241Z,101259.23
2018-02-15T21:01:23.998Z,101281.95
2018-02-15T21:03:58.081Z,101283.32
2018-02-15T21:06:35.542Z,101284.48
2018-02-15T21:09:09.190Z,101293.92
2018-02-15T21:11:43.556Z,101299.04
2018-02-15T21:14:17.242Z,101298.75
2018-02-15T21:16:51.164Z,101297.03
2018-02-15T21:19:24.792Z,101297.59
2018-02-15T21:21:56.325Z,101302.88
2018-02-15T21:24:30.626Z,101305.23
2018-02-15T21:27:04.230Z,101307.83
2018-02-15T21:29:44.108Z,101305.02
2018-02-15T21:32:17.346Z,101312.52
2018-02-15T21:34:50.518Z,101319.05
2018-02-15T21:37:23.361Z,101318.35
2018-02-15T21:39:56.681Z,101325.56
2018-02-15T21:42:30.460Z,101325.71
2018-02-15T21:45:05.741Z,101324.41
2018-02-15T21:47:38.712Z,101329.31
2018-02-15T21:50:10.352Z,101326.82
2018-02-15T21:52:46.224Z,101338.36
2018-02-15T21:55:19.216Z,101338.66
2018-02-15T21:57:50.789Z,101346.14
2018-02-15T22:00:24.473Z,101345.63
2018-02-15T22:03:00.036Z,101348.27
2018-02-15T22:05:31.843Z,101346.05
2018-02-15T22:08:05.304Z,101351.69
2018-02-15T22:10:36.924Z,101353.43
2018-02-15T22:13:07.538Z,101358.98
2018-02-15T22:15:40.334Z,101364.44
2018-02-15T22:18:11.464Z,101363.63
2018-02-15T22:20:43.252Z,101375.73
2018-02-15T22:23:14.899Z,101377.25
2018-02-15T22:25:45.525Z,101382.27
2018-02-15T22:28:16.498Z,101379.70
2018-02-15T22:30:48.088Z,101385.09
2018-02-15T22:33:18.706Z,101383.23
2018-02-15T22:35:49.171Z,101385.27
2018-02-15T22:38:20.175Z,101391.75
2018-02-15T22:40:50.595Z,101387.78
2018-02-15T22:43:21.050Z,101398.63
2018-02-15T22:45:51.973Z,101396.52
2018-02-15T22:48:22.692Z,101403.05
2018-02-15T22:50:53.467Z,101404.88
2018-02-15T22:53:24.343Z,101408.17
2018-02-15T22:55:54.687Z,101411.82
2018-02-15T22:58:25.176Z,101411.65
2018-02-15T23:00:55.752Z,101414.72
2018-02-15T23:03:26.616Z,101414.45
2018-02-15T23:05:56.884Z,101417.92
2018-02-15T23:08:27.637Z,101422.36
2018-02-15T23:10:58.088Z,101421.39
2018-02-15T23:13:29.094Z,101424.03
2018-02-15T23:15:59.772Z,101428.67
2018-02-15T23:18:31.602Z,101439.66
2018-02-15T23:21:03.147Z,101440.16
2018-02-15T23:23:33.462Z,101448.53
2018-02-15T23:26:03.896Z,101443.19
2018-02-15T23:28:34.896Z,101439.23
2018-02-15T23:31:06.075Z,101446.72
2018-02-15T23:33:38.031Z,101454.85
2018-02-15T23:36:09.332Z,101459.17
2018-02-15T23:38:40.650Z,101459.13
2018-02-15T23:41:11.126Z,101467.39
2018-02-15T23:43:42.621Z,101467.40
2018-02-15T23:46:13.913Z,101472.61
2018-02-15T23:48:48.380Z,101458.94
2018-02-15T23:51:19.281Z,101471.36
2018-02-15T23:53:50.191Z,101480.06
2018-02-15T23:56:20.868Z,101483.74
2018-02-15T23:58:51.336Z,101483.27
